• Join FlightAware (Why Join?)
  • Login
  • US Flag 
05:11AM EDT


 

Airport Tracker/Info


-or-


 

Live Flight TrackerFlight Track Log ✈ RPA3161 ✈ 27-Apr-2013 ✈ KBTV - KDCA

Flight Track Log - Related Links

Times and Time Zones

All times are in EDT time to prevent confusion due to time zone crossing. See the RPA3161 flight status page for this flight to view local times or setup timezone preferences in your user account.

Time Position Orientation Groundspeed Altitude Reporting Facility
EDT Latitude Longitude Course Direction KTS MPH feet Rate Location/Type
12:23PM 44.4544 -73.2339 195° South 163 188 3,900  Level Boston Center
12:24PM 44.0942 -73.2897 195° South  Level FlightAware Approximate
12:24PM 44.3875 -73.2533 192° South 201 231 6,600  Level Boston Center
12:25PM 44.0002 -73.3222 194° South  Level FlightAware Approximate
12:25PM 44.3144 -73.2786 194° South 254 292 9,300  Level Boston Center
12:26PM 43.9061 -73.3540 195° South  Level FlightAware Approximate
12:26PM 44.2311 -73.3006 191° South 300 345 11,500  Level Boston Center
12:27PM 43.8126 -73.3891 195° South  Level FlightAware Approximate
12:27PM 44.1433 -73.3253 191° South 320 368 13,900  Level Boston Center
12:28PM 43.7191 -73.4242 195° South  Level FlightAware Approximate
12:28PM 44.0536 -73.3558 194° South 332 382 16,200  Level Boston Center
12:29PM 43.9594 -73.3889 194° South 338 389 17,800 1,860 Climbing Boston Center
12:30PM 43.8550 -73.4275 195° South 353 406 20,000 1,920 Climbing Boston Center
12:31PM 43.7547 -73.4606 193° South 358 412 21,700 1,560 Climbing Boston Center
12:32PM 43.6628 -73.4906 193° South 374 430 23,200 1,560 Climbing Boston Center
12:33PM 43.5622 -73.5261 194° South 374 430 24,900 1,200 Climbing Boston Center
12:34PM 43.4556 -73.5611 193° South 384 442 25,700 900 Climbing Boston Center
12:35PM 43.3428 -73.5992 194° South 396 456 26,700 1,200 Climbing Boston Center
12:36PM 43.2278 -73.6425 195° South 419 482 28,200 1,560 Climbing Boston Center
12:37PM 43.0958 -73.6883 194° South 430 495 30,200 1,680 Climbing Boston Center
12:38PM 42.9642 -73.7311 193° South 425 489 32,000 900 Climbing Boston Center
12:39PM 42.8678 -73.7658 195° South 413 475 32,000  Level Boston Center
12:40PM 42.7550 -73.8003 193° South 408 470 32,000  Level Boston Center
12:41PM 42.6425 -73.7919 177° South 413 475 32,000  Level Boston Center
12:42PM 42.5175 -73.7725 173° South 406 467 32,000  Level Boston Center
12:43PM 42.4011 -73.7558 174° South 406 467 32,000  Level Boston Center
12:44PM 42.2867 -73.7367 173° South 412 474 32,000  Level Boston Center
12:45PM 42.1786 -73.7206 174° South 423 487 32,000  Level Boston Center
12:46PM 42.0642 -73.7042 174° South 417 480 32,000  Level Boston Center
12:48PM 41.8097 -73.8017 196° South 400 460 32,000  Level New York Center
12:49PM 41.7064 -73.8608 203° Southwest 405 466 32,000  Level New York Center
12:50PM 41.6047 -73.9228 204° Southwest 405 466 32,000  Level New York Center
12:51PM 41.4989 -73.9869 204° Southwest 395 455 32,000  Level New York Center
12:52PM 41.3953 -74.0483 204° Southwest 395 455 32,000  Level New York Center
12:53PM 41.2978 -74.1069 204° Southwest 395 455 32,000  Level New York Center
12:54PM 41.1961 -74.1681 204° Southwest 395 455 32,000  Level New York Center
12:55PM 41.0944 -74.2208 201° Southwest 406 467 32,000 -60 Level New York Center
12:56PM 40.9928 -74.2817 204° Southwest 401 461 31,900 -1,140 Descending New York Center
12:57PM 40.8911 -74.3394 203° Southwest 401 461 29,800 -1,980 Descending New York Center
12:58PM 40.7889 -74.4053 206° Southwest 401 461 28,000 -900 Descending New York Center
12:59PM 40.7189 -74.5194 231° Southwest 401 461 28,000  Level New York Center
01:00PM 40.6483 -74.6331 231° Southwest 401 461 28,000  Level New York Center
01:01PM 40.5781 -74.7467 231° Southwest 401 461 28,000  Level New York Center
01:02PM 40.5100 -74.8464 228° Southwest 406 467 28,000  Level New York Center
01:03PM 40.4353 -74.9539 228° Southwest 406 467 28,000 -60 Level New York Center
01:04PM 40.3608 -75.0583 227° Southwest 406 467 27,900 -1,080 Descending New York Center
01:05PM 40.2839 -75.1650 227° Southwest 401 461 25,900 -2,040 Descending New York Center
01:06PM 40.2089 -75.2717 227° Southwest 401 461 23,800 -1,980 Descending New York Center
01:07PM 40.1364 -75.3731 227° Southwest 401 461 22,000 -900 Descending New York Center
01:08PM 40.0636 -75.4739 227° Southwest 396 456 22,000  Level New York Center
01:09PM 39.9931 -75.5694 226° Southwest 391 450 22,000  Level New York Center
01:10PM 39.9219 -75.6728 228° Southwest 386 444 22,000  Level New York Center
01:11PM 39.8569 -75.7844 233° Southwest 386 444 22,000 -300 Level New York Center
01:12PM 39.8000 -75.8939 236° Southwest 381 438 21,500 -1,200 Descending New York Center
01:13PM 39.7331 -75.9944 229° Southwest 376 433 19,700 -1,860 Descending New York Center
01:14PM 39.6683 -76.0919 229° Southwest 349 402 17,900 -1,560 Descending New York Center
01:15PM 39.6611 -76.2047 265° West 299 344 16,600 -1,140 Descending New York Center
01:17PM 39.6333 -76.3833 259° West 310 357 15,000 -1,020 Descending Potomac TRACON
01:18PM 39.5500 -76.4333 205° Southwest 306 352 14,000 -1,320 Descending Potomac TRACON
01:19PM 39.4833 -76.4667 201° Southwest 304 350 12,400 -1,020 Descending Potomac TRACON
01:20PM 39.4000 -76.5167 205° Southwest 300 345 12,000 -240 Descending Potomac TRACON
01:21PM 39.3333 -76.5667 210° Southwest 301 346 12,000 -600 Level Potomac TRACON
01:22PM 39.2667 -76.6167 210° Southwest 296 341 10,800 -1,020 Descending Potomac TRACON
01:23PM 39.2333 -76.7167 247° West 297 342 10,000 -420 Descending Potomac TRACON
01:24PM 39.1500 -76.7167 180° South 305 351 10,000  Level Potomac TRACON
01:25PM 39.0833 -76.7833 218° Southwest 298 343 10,000  Level Potomac TRACON
01:26PM 39.0167 -76.8500 218° Southwest 294 338 10,000 -480 Level Potomac TRACON
01:27PM 38.9500 -76.9167 218° Southwest 291 335 9,100 -1,440 Descending Potomac TRACON
01:28PM 38.8833 -76.9500 201° Southwest 288 331 7,100 -1,860 Descending Potomac TRACON
01:29PM 38.8000 -76.9500 180° South 278 320 5,400 -1,080 Descending Potomac TRACON
01:30PM 38.7333 -76.9333 169° South 262 302 5,000 -240 Descending Potomac TRACON
01:31PM 38.6500 -76.9333 180° South 266 306 5,000 -60 Level Potomac TRACON
01:32PM 38.6167 -76.9667 218° Southwest 219 252 4,900 -720 Descending Potomac TRACON
01:33PM 38.6333 -77.0167 293° West 189 217 3,600 -1,200 Descending Potomac TRACON
01:34PM 38.6833 -77.0333 345° North 180 207 2,500 -720 Descending Potomac TRACON
01:35PM 38.7333 -77.0333 360° North 177 204 2,200 -300 Descending Potomac TRACON